Huvudsida
METAR-TAF:

METAR-TAF

Flygplatser :

Uşak, Turkiet

latitud: 38-40N, longitud: 029-25E, höjd: 919 m

Aktuellt väderrapport

Denna rapport gjordes för 41 minuter sedan, klockan 11:50 UTC
Vind 6 kt från ost, varierande mellan nordost och syd/sydost
Temperatur 12°C
Fuktighet 19%
Tryck 1017 hPa
Sikt 10 km eller mer
Inga moln under 1 500 m eller inga cumulonimbus

METAR: LTBO 251150Z 09006KT 050V150 CAVOK 12/M11 Q1017

Tid: 15:31 (12:31 UTC)

Väderprognos

Denna rapport gjordes för 1 timme och 51 minuter sedan, klockan 10:40 UTC
Prognos gäller från 25 kl. 12 UTC till 25 kl. 21 UTC
Vind 2 kt varierande vindriktning
Sikt 10 km eller mer
Inga moln under 1 500 m eller inga cumulonimbus

TAF: LTBO 251040Z 2512/2521 VRB02KT CAVOK

Aktuella väderrapporter och prognoser från 4000 flygplatser (METAR- och TAF-rapporter).

De tillgängliga stationerna syns som gula och röda prickar på kartan.

För musen över prickarna för att se namnen på stationerna.

Klicka sedan för att få väderrapporter och prognoser.

För att ändra kartan: Klicka på de gröna knapparna med ett svart kors på för att zooma in; den gröna knappen med ett streck på för att zooma ut; eller på de gröna pilarna för angränsande kartor.


METAR-TAF: